ASA7005 PAJN-PASI
Flight info
| Callsign | ASA7005 |
|---|---|
| Flight time | N/A |
| Altitude | 15000 |
| Route | RODMN1 RODMN |
| Aircraft | B737/M-SDE2E3FGHIRWXY/LB1 |
Departure
| Time | N/A |
|---|---|
| Airport | Juneau International Airport (PAJN) |
Arrival
| Time | 2026-04-16 19:51 |
|---|---|
| Airport | Sitka Rocky Gutierrez Airport (PASI) |
| Time | Latitude | Longitude | Altitude | Speed | Heading |
|---|---|---|---|---|---|
| 2026-04-16 19:43 | 57.35553 | -135.62635 | 5676 ft | 252 kts | 209° |
| 2026-04-16 19:43 | 57.33907 | -135.63656 | 5402 ft | 250 kts | 192° |
| 2026-04-16 19:44 | 57.32183 | -135.64066 | 5093 ft | 249 kts | 188° |
| 2026-04-16 19:44 | 57.30491 | -135.64373 | 4846 ft | 242 kts | 188° |
| 2026-04-16 19:44 | 57.28869 | -135.64576 | 4724 ft | 224 kts | 187° |
| 2026-04-16 19:44 | 57.27366 | -135.64898 | 4599 ft | 210 kts | 190° |
| 2026-04-16 19:45 | 57.25955 | -135.65227 | 4501 ft | 198 kts | 190° |
| 2026-04-16 19:45 | 57.24632 | -135.65525 | 4457 ft | 191 kts | 189° |
| 2026-04-16 19:45 | 57.23308 | -135.65817 | 4350 ft | 192 kts | 189° |
| 2026-04-16 19:45 | 57.21961 | -135.66069 | 4154 ft | 197 kts | 181° |
| 2026-04-16 19:46 | 57.20699 | -135.65135 | 3923 ft | 201 kts | 140° |
| 2026-04-16 19:46 | 57.19730 | -135.63289 | 3711 ft | 199 kts | 139° |
| 2026-04-16 19:46 | 57.18734 | -135.61539 | 3475 ft | 196 kts | 140° |
| 2026-04-16 19:46 | 57.17753 | -135.59782 | 3235 ft | 196 kts | 139° |
| 2026-04-16 19:47 | 57.16794 | -135.58048 | 3021 ft | 195 kts | 139° |
| 2026-04-16 19:47 | 57.15826 | -135.56296 | 2826 ft | 191 kts | 139° |
| 2026-04-16 19:47 | 57.14901 | -135.54618 | 2655 ft | 181 kts | 139° |
| 2026-04-16 19:47 | 57.14013 | -135.53011 | 2402 ft | 176 kts | 139° |
| 2026-04-16 19:48 | 57.13170 | -135.51482 | 2199 ft | 164 kts | 140° |
| 2026-04-16 19:48 | 57.12399 | -135.50084 | 2013 ft | 149 kts | 139° |
| 2026-04-16 19:48 | 57.11681 | -135.48786 | 1773 ft | 139 kts | 139° |
| 2026-04-16 19:48 | 57.11000 | -135.47527 | 1592 ft | 138 kts | 131° |
| 2026-04-16 19:49 | 57.10350 | -135.46287 | 1428 ft | 135 kts | 135° |
| 2026-04-16 19:49 | 57.09660 | -135.45087 | 1297 ft | 138 kts | 136° |
| 2026-04-16 19:49 | 57.08967 | -135.43849 | 1086 ft | 139 kts | 136° |
| 2026-04-16 19:49 | 57.08281 | -135.42604 | 868 ft | 137 kts | 137° |
| 2026-04-16 19:50 | 57.07597 | -135.41380 | 706 ft | 137 kts | 136° |
| 2026-04-16 19:50 | 57.06928 | -135.40142 | 538 ft | 138 kts | 135° |
| 2026-04-16 19:50 | 57.06242 | -135.38918 | 319 ft | 136 kts | 135° |
| 2026-04-16 19:50 | 57.05572 | -135.37711 | 121 ft | 135 kts | 135° |
| 2026-04-16 19:51 | 57.04926 | -135.36549 | 35 ft | 119 kts | 135° |
| 2026-04-16 19:51 | 57.04486 | -135.35754 | 33 ft | 58 kts | 135° |
| 2026-04-16 19:51 | 57.04361 | -135.35529 | 35 ft | 3 kts | 129° |
| 2026-04-16 19:51 | 57.04358 | -135.35488 | 35 ft | 4 kts | 121° |
| 2026-04-16 19:52 | 57.04348 | -135.35497 | 35 ft | 2 kts | 244° |
| 2026-04-16 19:52 | 57.04361 | -135.35532 | 35 ft | 5 kts | 316° |
| 2026-04-16 19:52 | 57.04397 | -135.35597 | 34 ft | 10 kts | 315° |
| 2026-04-16 19:52 | 57.04454 | -135.35701 | 34 ft | 13 kts | 315° |
| 2026-04-16 19:53 | 57.04526 | -135.35830 | 35 ft | 16 kts | 315° |
| 2026-04-16 19:53 | 57.04614 | -135.35987 | 35 ft | 18 kts | 315° |
| 2026-04-16 19:53 | 57.04712 | -135.36164 | 35 ft | 21 kts | 315° |
| 2026-04-16 19:53 | 57.04797 | -135.36300 | 36 ft | 14 kts | 335° |
| 2026-04-16 19:54 | 57.04888 | -135.36312 | 34 ft | 13 kts | 0° |
| 2026-04-16 19:54 | 57.04972 | -135.36352 | 34 ft | 13 kts | 324° |
| 2026-04-16 19:54 | 57.05035 | -135.36463 | 33 ft | 12 kts | 316° |
| 2026-04-16 19:54 | 57.05095 | -135.36571 | 34 ft | 12 kts | 315° |
| 2026-04-16 19:55 | 57.05153 | -135.36679 | 32 ft | 12 kts | 315° |
| 2026-04-16 19:55 | 57.05208 | -135.36724 | 34 ft | 7 kts | 18° |
| 2026-04-16 19:55 | 57.05224 | -135.36680 | 34 ft | 4 kts | 73° |
| 2026-04-16 19:55 | 57.05231 | -135.36636 | 34 ft | 4 kts | 75° |
| 2026-04-16 19:56 | 57.05235 | -135.36606 | 34 ft | 1 kts | 75° |
| 2026-04-16 19:56 | 57.05235 | -135.36604 | 34 ft | 0 kts | 75° |